sensor_id;sensor_type;location;lat;lon;timestamp;pressure;altitude;pressure_sealevel;temperature;humidity
40372;BME280;28564;53.346;-6.554;2023-07-30T00:02:21;99734.45;;;17.90;48.66
40372;BME280;28564;53.346;-6.554;2023-07-30T00:04:48;99728.41;;;17.94;48.62
40372;BME280;28564;53.346;-6.554;2023-07-30T00:07:16;99730.23;;;17.96;48.71
40372;BME280;28564;53.346;-6.554;2023-07-30T00:09:43;99724.22;;;17.79;48.65
40372;BME280;28564;53.346;-6.554;2023-07-30T00:12:10;99731.54;;;18.05;48.60
40372;BME280;28564;53.346;-6.554;2023-07-30T00:14:37;99730.22;;;18.11;48.39
40372;BME280;28564;53.346;-6.554;2023-07-30T00:17:04;99728.41;;;17.64;48.37
40372;BME280;28564;53.346;-6.554;2023-07-30T00:19:32;99731.23;;;18.01;48.23
40372;BME280;28564;53.346;-6.554;2023-07-30T00:21:59;99732.77;;;18.07;48.13
40372;BME280;28564;53.346;-6.554;2023-07-30T00:24:26;99741.73;;;18.04;48.10
40372;BME280;28564;53.346;-6.554;2023-07-30T00:26:53;99737.35;;;18.08;48.01
40372;BME280;28564;53.346;-6.554;2023-07-30T00:29:20;99743.74;;;18.16;47.87
40372;BME280;28564;53.346;-6.554;2023-07-30T00:31:47;99745.53;;;18.30;48.00
40372;BME280;28564;53.346;-6.554;2023-07-30T00:34:14;99746.66;;;18.32;47.99
40372;BME280;28564;53.346;-6.554;2023-07-30T00:36:41;99746.73;;;18.30;48.01
40372;BME280;28564;53.346;-6.554;2023-07-30T00:39:08;99744.65;;;18.11;48.00
40372;BME280;28564;53.346;-6.554;2023-07-30T00:41:36;99743.80;;;18.13;47.98
40372;BME280;28564;53.346;-6.554;2023-07-30T00:44:03;99745.09;;;18.20;47.95
40372;BME280;28564;53.346;-6.554;2023-07-30T00:46:30;99748.98;;;18.18;47.98
40372;BME280;28564;53.346;-6.554;2023-07-30T00:48:58;99743.43;;;18.34;48.15
40372;BME280;28564;53.346;-6.554;2023-07-30T00:51:26;99748.35;;;18.43;48.14
40372;BME280;28564;53.346;-6.554;2023-07-30T00:53:55;99754.02;;;18.17;48.24
40372;BME280;28564;53.346;-6.554;2023-07-30T00:56:22;99746.69;;;18.09;48.40
40372;BME280;28564;53.346;-6.554;2023-07-30T00:58:49;99751.53;;;17.58;48.59
40372;BME280;28564;53.346;-6.554;2023-07-30T01:01:17;99748.05;;;18.29;48.81
40372;BME280;28564;53.346;-6.554;2023-07-30T01:03:44;99755.14;;;18.27;48.81
40372;BME280;28564;53.346;-6.554;2023-07-30T01:06:12;99758.31;;;18.26;48.85
40372;BME280;28564;53.346;-6.554;2023-07-30T01:08:39;99762.82;;;18.24;48.91
40372;BME280;28564;53.346;-6.554;2023-07-30T01:11:06;99759.90;;;18.04;48.99
40372;BME280;28564;53.346;-6.554;2023-07-30T01:13:35;99766.10;;;17.98;49.20
40372;BME280;28564;53.346;-6.554;2023-07-30T01:16:03;99769.41;;;17.68;49.20
40372;BME280;28564;53.346;-6.554;2023-07-30T01:18:30;99764.56;;;17.96;49.18
40372;BME280;28564;53.346;-6.554;2023-07-30T01:20:58;99765.64;;;17.92;49.02
40372;BME280;28564;53.346;-6.554;2023-07-30T01:23:26;99771.94;;;17.95;48.91
40372;BME280;28564;53.346;-6.554;2023-07-30T01:26:01;99776.31;;;17.99;48.75
40372;BME280;28564;53.346;-6.554;2023-07-30T01:28:36;99771.82;;;18.23;48.65
40372;BME280;28564;53.346;-6.554;2023-07-30T01:31:05;99768.64;;;18.05;48.51
40372;BME280;28564;53.346;-6.554;2023-07-30T01:33:33;99775.09;;;18.04;48.56
40372;BME280;28564;53.346;-6.554;2023-07-30T01:36:01;99777.80;;;18.27;48.65
40372;BME280;28564;53.346;-6.554;2023-07-30T01:38:29;99793.08;;;18.19;48.67
40372;BME280;28564;53.346;-6.554;2023-07-30T01:40:57;99777.97;;;18.16;48.76
40372;BME280;28564;53.346;-6.554;2023-07-30T01:43:24;99784.07;;;17.99;48.81
40372;BME280;28564;53.346;-6.554;2023-07-30T01:45:51;99780.13;;;17.97;48.83
40372;BME280;28564;53.346;-6.554;2023-07-30T01:48:18;99779.59;;;18.21;48.83
40372;BME280;28564;53.346;-6.554;2023-07-30T01:50:45;99782.26;;;18.14;48.93
40372;BME280;28564;53.346;-6.554;2023-07-30T01:53:12;99786.03;;;18.12;49.01
40372;BME280;28564;53.346;-6.554;2023-07-30T01:55:39;99788.07;;;17.91;48.99
40372;BME280;28564;53.346;-6.554;2023-07-30T01:58:06;99786.42;;;17.85;49.03
40372;BME280;28564;53.346;-6.554;2023-07-30T02:00:33;99784.85;;;17.89;49.00
40372;BME280;28564;53.346;-6.554;2023-07-30T02:03:01;99783.71;;;18.07;49.15
40372;BME280;28564;53.346;-6.554;2023-07-30T02:05:28;99793.21;;;17.79;49.43
40372;BME280;28564;53.346;-6.554;2023-07-30T02:07:55;99798.70;;;17.90;50.41
40372;BME280;28564;53.346;-6.554;2023-07-30T02:10:23;99796.96;;;17.78;51.27
40372;BME280;28564;53.346;-6.554;2023-07-30T02:12:51;99809.09;;;17.63;52.02
40372;BME280;28564;53.346;-6.554;2023-07-30T02:15:18;99810.44;;;17.50;52.48
40372;BME280;28564;53.346;-6.554;2023-07-30T02:17:45;99817.26;;;17.44;52.79
40372;BME280;28564;53.346;-6.554;2023-07-30T02:20:12;99819.11;;;17.37;53.08
40372;BME280;28564;53.346;-6.554;2023-07-30T02:22:39;99819.47;;;17.30;53.10
40372;BME280;28564;53.346;-6.554;2023-07-30T02:25:07;99820.45;;;17.26;53.07
40372;BME280;28564;53.346;-6.554;2023-07-30T02:27:34;99824.39;;;17.24;53.28
40372;BME280;28564;53.346;-6.554;2023-07-30T02:30:02;99827.30;;;17.19;53.40
40372;BME280;28564;53.346;-6.554;2023-07-30T02:32:30;99823.89;;;17.20;53.37
40372;BME280;28564;53.346;-6.554;2023-07-30T02:34:57;99824.79;;;17.20;53.37
40372;BME280;28564;53.346;-6.554;2023-07-30T02:37:24;99824.12;;;17.11;53.37
40372;BME280;28564;53.346;-6.554;2023-07-30T02:39:52;99823.68;;;17.64;53.38
40372;BME280;28564;53.346;-6.554;2023-07-30T02:42:19;99823.31;;;17.10;53.31
40372;BME280;28564;53.346;-6.554;2023-07-30T02:44:46;99826.81;;;17.66;53.35
40372;BME280;28564;53.346;-6.554;2023-07-30T02:47:13;99825.50;;;17.19;53.26
40372;BME280;28564;53.346;-6.554;2023-07-30T02:49:40;99829.70;;;17.24;53.13
40372;BME280;28564;53.346;-6.554;2023-07-30T02:52:07;99825.16;;;17.26;53.00
40372;BME280;28564;53.346;-6.554;2023-07-30T02:54:34;99827.37;;;17.26;52.98
40372;BME280;28564;53.346;-6.554;2023-07-30T02:57:02;99821.85;;;17.30;52.75
40372;BME280;28564;53.346;-6.554;2023-07-30T02:59:29;99818.33;;;17.33;52.63
40372;BME280;28564;53.346;-6.554;2023-07-30T03:01:56;99816.76;;;17.30;52.44
40372;BME280;28564;53.346;-6.554;2023-07-30T03:04:23;99818.55;;;17.34;52.34
40372;BME280;28564;53.346;-6.554;2023-07-30T03:06:50;99815.99;;;17.32;52.31
40372;BME280;28564;53.346;-6.554;2023-07-30T03:09:17;99822.20;;;17.29;52.17
40372;BME280;28564;53.346;-6.554;2023-07-30T03:11:44;99817.40;;;17.33;52.02
40372;BME280;28564;53.346;-6.554;2023-07-30T03:14:12;99822.62;;;17.46;51.93
40372;BME280;28564;53.346;-6.554;2023-07-30T03:16:39;99822.84;;;17.27;51.70
40372;BME280;28564;53.346;-6.554;2023-07-30T03:19:06;99840.66;;;17.36;51.54
40372;BME280;28564;53.346;-6.554;2023-07-30T03:21:33;99822.70;;;17.36;51.31
40372;BME280;28564;53.346;-6.554;2023-07-30T03:24:00;99826.90;;;17.37;51.24
40372;BME280;28564;53.346;-6.554;2023-07-30T03:26:27;99829.64;;;17.39;51.07
40372;BME280;28564;53.346;-6.554;2023-07-30T03:28:54;99833.25;;;17.40;51.17
40372;BME280;28564;53.346;-6.554;2023-07-30T03:31:21;99830.50;;;17.39;51.21
40372;BME280;28564;53.346;-6.554;2023-07-30T03:33:48;99832.73;;;17.17;51.15
40372;BME280;28564;53.346;-6.554;2023-07-30T03:36:16;99832.17;;;17.48;51.04
40372;BME280;28564;53.346;-6.554;2023-07-30T03:38:43;99834.36;;;17.54;50.99
40372;BME280;28564;53.346;-6.554;2023-07-30T03:41:10;99833.57;;;17.55;50.89
40372;BME280;28564;53.346;-6.554;2023-07-30T03:43:38;99838.92;;;17.57;50.69
40372;BME280;28564;53.346;-6.554;2023-07-30T03:46:05;99837.10;;;17.62;50.65
40372;BME280;28564;53.346;-6.554;2023-07-30T03:48:32;99835.50;;;17.64;50.52
40372;BME280;28564;53.346;-6.554;2023-07-30T03:50:59;99845.07;;;17.65;50.60
40372;BME280;28564;53.346;-6.554;2023-07-30T03:53:26;99843.38;;;17.65;50.52
40372;BME280;28564;53.346;-6.554;2023-07-30T03:55:53;99848.35;;;17.40;50.56
40372;BME280;28564;53.346;-6.554;2023-07-30T03:58:21;99849.89;;;17.59;50.60
40372;BME280;28564;53.346;-6.554;2023-07-30T04:00:48;99847.64;;;17.53;50.70
40372;BME280;28564;53.346;-6.554;2023-07-30T04:03:15;99851.43;;;17.59;50.72
40372;BME280;28564;53.346;-6.554;2023-07-30T04:05:42;99847.40;;;17.58;50.71
40372;BME280;28564;53.346;-6.554;2023-07-30T04:08:09;99849.54;;;17.60;50.72
40372;BME280;28564;53.346;-6.554;2023-07-30T04:10:36;99850.44;;;17.53;50.73
40372;BME280;28564;53.346;-6.554;2023-07-30T04:13:03;99848.92;;;17.53;50.73
40372;BME280;28564;53.346;-6.554;2023-07-30T04:15:30;99847.51;;;17.50;50.76
40372;BME280;28564;53.346;-6.554;2023-07-30T04:17:57;99847.27;;;17.53;50.75
40372;BME280;28564;53.346;-6.554;2023-07-30T04:20:24;99850.81;;;17.47;50.74
40372;BME280;28564;53.346;-6.554;2023-07-30T04:22:51;99856.29;;;17.45;50.71
40372;BME280;28564;53.346;-6.554;2023-07-30T04:25:18;99857.47;;;17.44;50.74
40372;BME280;28564;53.346;-6.554;2023-07-30T04:27:45;99853.45;;;17.42;50.67
40372;BME280;28564;53.346;-6.554;2023-07-30T04:30:12;99853.77;;;17.43;50.65
40372;BME280;28564;53.346;-6.554;2023-07-30T04:32:40;99856.10;;;17.39;50.59
40372;BME280;28564;53.346;-6.554;2023-07-30T04:35:07;99859.49;;;17.33;50.65
40372;BME280;28564;53.346;-6.554;2023-07-30T04:37:35;99858.83;;;17.37;50.67
40372;BME280;28564;53.346;-6.554;2023-07-30T04:40:02;99861.05;;;17.40;50.69
40372;BME280;28564;53.346;-6.554;2023-07-30T04:42:29;99864.85;;;17.36;50.62
40372;BME280;28564;53.346;-6.554;2023-07-30T04:44:56;99865.33;;;17.38;50.55
40372;BME280;28564;53.346;-6.554;2023-07-30T04:47:23;99865.94;;;17.33;50.52
40372;BME280;28564;53.346;-6.554;2023-07-30T04:49:50;99865.05;;;17.33;50.51
40372;BME280;28564;53.346;-6.554;2023-07-30T04:52:18;99863.60;;;17.31;50.56
40372;BME280;28564;53.346;-6.554;2023-07-30T04:54:45;99868.31;;;17.21;50.63
40372;BME280;28564;53.346;-6.554;2023-07-30T04:57:12;99869.81;;;17.19;50.65
40372;BME280;28564;53.346;-6.554;2023-07-30T04:59:39;99873.01;;;17.16;50.75
40372;BME280;28564;53.346;-6.554;2023-07-30T05:02:06;99869.97;;;17.13;50.71
40372;BME280;28564;53.346;-6.554;2023-07-30T05:04:33;99871.95;;;17.13;50.74
40372;BME280;28564;53.346;-6.554;2023-07-30T05:07:00;99871.72;;;17.17;50.63
40372;BME280;28564;53.346;-6.554;2023-07-30T05:09:27;99880.91;;;17.21;50.62
40372;BME280;28564;53.346;-6.554;2023-07-30T05:11:54;99875.90;;;17.34;50.43
40372;BME280;28564;53.346;-6.554;2023-07-30T05:14:21;99873.80;;;17.34;50.38
40372;BME280;28564;53.346;-6.554;2023-07-30T05:16:48;99874.99;;;17.32;50.40
40372;BME280;28564;53.346;-6.554;2023-07-30T05:19:16;99881.86;;;17.37;50.38
40372;BME280;28564;53.346;-6.554;2023-07-30T05:21:43;99881.74;;;17.42;50.41
40372;BME280;28564;53.346;-6.554;2023-07-30T05:24:10;99878.97;;;17.47;50.34
40372;BME280;28564;53.346;-6.554;2023-07-30T05:26:37;99879.63;;;17.53;50.37
40372;BME280;28564;53.346;-6.554;2023-07-30T05:29:04;99895.54;;;17.48;50.42
40372;BME280;28564;53.346;-6.554;2023-07-30T05:31:31;99884.18;;;17.55;50.40
40372;BME280;28564;53.346;-6.554;2023-07-30T05:33:58;99888.24;;;17.59;50.45
40372;BME280;28564;53.346;-6.554;2023-07-30T05:36:25;99889.09;;;17.54;50.64
40372;BME280;28564;53.346;-6.554;2023-07-30T05:38:53;99896.76;;;17.62;50.61
40372;BME280;28564;53.346;-6.554;2023-07-30T05:41:20;99891.39;;;17.69;50.65
40372;BME280;28564;53.346;-6.554;2023-07-30T05:43:47;99902.05;;;17.75;50.63
40372;BME280;28564;53.346;-6.554;2023-07-30T05:46:14;99895.59;;;17.79;50.65
40372;BME280;28564;53.346;-6.554;2023-07-30T05:48:41;99898.27;;;17.58;50.69
40372;BME280;28564;53.346;-6.554;2023-07-30T05:51:08;99904.02;;;17.82;50.71
40372;BME280;28564;53.346;-6.554;2023-07-30T05:53:35;99911.73;;;17.53;51.28
40372;BME280;28564;53.346;-6.554;2023-07-30T05:56:02;99912.38;;;17.56;51.90
40372;BME280;28564;53.346;-6.554;2023-07-30T05:58:29;99909.39;;;17.46;52.43
40372;BME280;28564;53.346;-6.554;2023-07-30T06:00:56;99915.08;;;17.45;52.65
40372;BME280;28564;53.346;-6.554;2023-07-30T06:03:23;99919.78;;;17.38;52.92
40372;BME280;28564;53.346;-6.554;2023-07-30T06:05:51;99916.49;;;17.40;52.89
40372;BME280;28564;53.346;-6.554;2023-07-30T06:08:17;99917.19;;;17.39;53.02
40372;BME280;28564;53.346;-6.554;2023-07-30T06:10:45;99914.79;;;17.43;53.14
40372;BME280;28564;53.346;-6.554;2023-07-30T06:13:12;99915.10;;;17.22;53.12
40372;BME280;28564;53.346;-6.554;2023-07-30T06:15:39;99911.01;;;17.48;52.97
40372;BME280;28564;53.346;-6.554;2023-07-30T06:18:06;99913.36;;;17.50;52.93
40372;BME280;28564;53.346;-6.554;2023-07-30T06:20:33;99915.09;;;17.47;52.98
40372;BME280;28564;53.346;-6.554;2023-07-30T06:23:01;99916.67;;;17.50;53.14
40372;BME280;28564;53.346;-6.554;2023-07-30T06:25:28;99912.66;;;17.56;53.15
40372;BME280;28564;53.346;-6.554;2023-07-30T06:27:55;99912.83;;;17.68;53.26
40372;BME280;28564;53.346;-6.554;2023-07-30T06:30:22;99912.91;;;17.75;53.01
40372;BME280;28564;53.346;-6.554;2023-07-30T06:32:49;99911.15;;;17.78;53.01
40372;BME280;28564;53.346;-6.554;2023-07-30T06:35:16;99912.30;;;17.59;52.73
40372;BME280;28564;53.346;-6.554;2023-07-30T06:37:43;99915.62;;;17.77;52.60
40372;BME280;28564;53.346;-6.554;2023-07-30T06:40:10;99906.79;;;17.72;52.41
40372;BME280;28564;53.346;-6.554;2023-07-30T06:42:37;99898.76;;;17.59;52.53
40372;BME280;28564;53.346;-6.554;2023-07-30T06:45:05;99900.20;;;17.59;52.47
40372;BME280;28564;53.346;-6.554;2023-07-30T06:47:33;99908.00;;;17.38;52.67
40372;BME280;28564;53.346;-6.554;2023-07-30T06:50:00;99910.55;;;17.64;52.89
40372;BME280;28564;53.346;-6.554;2023-07-30T06:52:27;99909.78;;;17.76;53.10
40372;BME280;28564;53.346;-6.554;2023-07-30T06:54:54;99906.14;;;17.92;52.94
40372;BME280;28564;53.346;-6.554;2023-07-30T06:57:22;99908.63;;;17.96;52.74
40372;BME280;28564;53.346;-6.554;2023-07-30T06:59:49;99912.80;;;18.04;52.65
40372;BME280;28564;53.346;-6.554;2023-07-30T07:02:16;99916.52;;;18.17;52.59
40372;BME280;28564;53.346;-6.554;2023-07-30T07:04:43;99918.93;;;18.01;52.20
40372;BME280;28564;53.346;-6.554;2023-07-30T07:07:10;99922.43;;;18.07;52.07
40372;BME280;28564;53.346;-6.554;2023-07-30T07:09:37;99935.39;;;18.27;52.07
40372;BME280;28564;53.346;-6.554;2023-07-30T07:12:05;99930.31;;;18.17;51.51
40372;BME280;28564;53.346;-6.554;2023-07-30T07:14:32;99925.50;;;18.60;51.19
40372;BME280;28564;53.346;-6.554;2023-07-30T07:17:00;99923.80;;;18.62;51.00
40372;BME280;28564;53.346;-6.554;2023-07-30T07:19:27;99924.41;;;18.39;50.63
40372;BME280;28564;53.346;-6.554;2023-07-30T07:21:54;99933.14;;;18.39;50.54
40372;BME280;28564;53.346;-6.554;2023-07-30T07:24:21;99927.93;;;18.56;50.51
40372;BME280;28564;53.346;-6.554;2023-07-30T07:26:48;99929.16;;;18.85;50.46
40372;BME280;28564;53.346;-6.554;2023-07-30T07:29:15;99928.85;;;19.04;49.92
40372;BME280;28564;53.346;-6.554;2023-07-30T07:31:42;99928.97;;;18.78;49.54
40372;BME280;28564;53.346;-6.554;2023-07-30T07:34:09;99927.28;;;19.01;49.61
40372;BME280;28564;53.346;-6.554;2023-07-30T07:36:37;99927.12;;;19.41;48.71
40372;BME280;28564;53.346;-6.554;2023-07-30T07:39:04;99930.92;;;19.22;47.91
40372;BME280;28564;53.346;-6.554;2023-07-30T07:41:31;99932.20;;;19.69;47.74
40372;BME280;28564;53.346;-6.554;2023-07-30T07:43:58;99939.52;;;19.30;47.58
40372;BME280;28564;53.346;-6.554;2023-07-30T07:46:25;99941.45;;;19.29;47.22
40372;BME280;28564;53.346;-6.554;2023-07-30T07:48:52;99940.40;;;19.35;47.23
40372;BME280;28564;53.346;-6.554;2023-07-30T07:51:19;99937.19;;;19.48;47.27
40372;BME280;28564;53.346;-6.554;2023-07-30T07:53:46;99940.35;;;19.31;47.32
40372;BME280;28564;53.346;-6.554;2023-07-30T07:56:13;99938.50;;;19.47;46.93
40372;BME280;28564;53.346;-6.554;2023-07-30T07:58:40;99935.03;;;19.84;46.35
40372;BME280;28564;53.346;-6.554;2023-07-30T08:01:07;99943.41;;;19.68;46.40
40372;BME280;28564;53.346;-6.554;2023-07-30T08:03:34;99939.48;;;19.71;45.83
40372;BME280;28564;53.346;-6.554;2023-07-30T08:06:02;99939.48;;;20.09;46.08
40372;BME280;28564;53.346;-6.554;2023-07-30T08:08:29;99944.46;;;20.27;46.25
40372;BME280;28564;53.346;-6.554;2023-07-30T08:10:56;99937.65;;;20.10;45.48
40372;BME280;28564;53.346;-6.554;2023-07-30T08:13:23;99935.86;;;20.17;45.14
40372;BME280;28564;53.346;-6.554;2023-07-30T08:15:51;99938.62;;;20.21;45.20
40372;BME280;28564;53.346;-6.554;2023-07-30T08:18:18;99940.74;;;20.31;44.68
40372;BME280;28564;53.346;-6.554;2023-07-30T08:20:45;99941.50;;;20.31;44.90
40372;BME280;28564;53.346;-6.554;2023-07-30T08:23:12;99944.95;;;20.22;44.35
40372;BME280;28564;53.346;-6.554;2023-07-30T08:25:39;99937.35;;;20.43;44.14
40372;BME280;28564;53.346;-6.554;2023-07-30T08:28:06;99936.47;;;20.76;43.90
40372;BME280;28564;53.346;-6.554;2023-07-30T08:30:33;99933.18;;;20.62;43.25
40372;BME280;28564;53.346;-6.554;2023-07-30T08:33:01;99940.23;;;21.02;43.19
40372;BME280;28564;53.346;-6.554;2023-07-30T08:35:28;99943.75;;;20.94;42.76
40372;BME280;28564;53.346;-6.554;2023-07-30T08:37:55;99948.57;;;20.98;42.49
40372;BME280;28564;53.346;-6.554;2023-07-30T08:40:23;99948.30;;;20.99;42.16
40372;BME280;28564;53.346;-6.554;2023-07-30T08:42:50;99940.56;;;20.92;42.56
40372;BME280;28564;53.346;-6.554;2023-07-30T08:45:18;99944.25;;;21.00;42.82
40372;BME280;28564;53.346;-6.554;2023-07-30T08:47:46;99942.64;;;21.07;42.62
40372;BME280;28564;53.346;-6.554;2023-07-30T08:50:14;99945.31;;;21.03;42.49
40372;BME280;28564;53.346;-6.554;2023-07-30T08:52:43;99944.04;;;21.02;42.13
40372;BME280;28564;53.346;-6.554;2023-07-30T08:55:10;99950.04;;;21.05;42.30
40372;BME280;28564;53.346;-6.554;2023-07-30T08:57:38;99953.65;;;21.00;42.68
40372;BME280;28564;53.346;-6.554;2023-07-30T09:00:09;99950.27;;;20.82;42.96
40372;BME280;28564;53.346;-6.554;2023-07-30T09:02:39;99950.23;;;20.95;43.70
40372;BME280;28564;53.346;-6.554;2023-07-30T09:05:09;99948.34;;;20.70;44.23
40372;BME280;28564;53.346;-6.554;2023-07-30T09:07:36;99953.66;;;20.95;44.57
40372;BME280;28564;53.346;-6.554;2023-07-30T09:10:04;99962.11;;;20.75;44.53
40372;BME280;28564;53.346;-6.554;2023-07-30T09:12:31;99957.91;;;20.64;44.55
40372;BME280;28564;53.346;-6.554;2023-07-30T09:14:59;99957.78;;;20.73;44.79
40372;BME280;28564;53.346;-6.554;2023-07-30T09:17:27;99964.84;;;20.36;44.94
40372;BME280;28564;53.346;-6.554;2023-07-30T09:19:54;99968.24;;;20.38;44.92
40372;BME280;28564;53.346;-6.554;2023-07-30T09:22:25;99969.96;;;20.02;45.50
40372;BME280;28564;53.346;-6.554;2023-07-30T09:24:52;99971.31;;;20.19;45.69
40372;BME280;28564;53.346;-6.554;2023-07-30T09:27:21;99973.40;;;19.94;45.76
40372;BME280;28564;53.346;-6.554;2023-07-30T09:29:51;99968.47;;;20.40;45.71
40372;BME280;28564;53.346;-6.554;2023-07-30T09:32:18;99973.32;;;20.11;45.33
40372;BME280;28564;53.346;-6.554;2023-07-30T09:34:46;99972.08;;;20.31;45.35
40372;BME280;28564;53.346;-6.554;2023-07-30T09:37:13;99967.63;;;20.05;45.59
40372;BME280;28564;53.346;-6.554;2023-07-30T09:39:41;99965.08;;;20.05;45.25
40372;BME280;28564;53.346;-6.554;2023-07-30T09:42:08;99961.62;;;20.22;45.32
40372;BME280;28564;53.346;-6.554;2023-07-30T09:44:37;99962.45;;;20.34;45.12
40372;BME280;28564;53.346;-6.554;2023-07-30T09:47:08;99962.38;;;20.30;44.98
40372;BME280;28564;53.346;-6.554;2023-07-30T09:49:36;99953.95;;;20.59;44.92
40372;BME280;28564;53.346;-6.554;2023-07-30T09:52:04;99953.42;;;20.67;44.24
40372;BME280;28564;53.346;-6.554;2023-07-30T09:54:32;99954.94;;;20.85;44.28
40372;BME280;28564;53.346;-6.554;2023-07-30T09:56:59;99959.04;;;20.98;44.14
40372;BME280;28564;53.346;-6.554;2023-07-30T09:59:26;99964.76;;;20.99;43.56
40372;BME280;28564;53.346;-6.554;2023-07-30T10:01:53;99967.68;;;20.92;43.42
40372;BME280;28564;53.346;-6.554;2023-07-30T10:04:23;99964.87;;;20.79;43.51
40372;BME280;28564;53.346;-6.554;2023-07-30T10:06:53;99964.79;;;21.06;43.70
40372;BME280;28564;53.346;-6.554;2023-07-30T10:09:23;99969.42;;;21.25;43.32
40372;BME280;28564;53.346;-6.554;2023-07-30T10:11:53;99973.23;;;21.47;43.03
40372;BME280;28564;53.346;-6.554;2023-07-30T10:14:22;99969.55;;;21.24;42.79
40372;BME280;28564;53.346;-6.554;2023-07-30T10:16:52;99967.91;;;21.63;42.60
40372;BME280;28564;53.346;-6.554;2023-07-30T10:19:23;99966.78;;;21.39;42.05
40372;BME280;28564;53.346;-6.554;2023-07-30T10:21:51;99973.41;;;21.62;41.77
40372;BME280;28564;53.346;-6.554;2023-07-30T10:24:18;99972.92;;;21.34;42.02
40372;BME280;28564;53.346;-6.554;2023-07-30T10:26:45;99971.88;;;21.70;41.81
40372;BME280;28564;53.346;-6.554;2023-07-30T10:29:13;99971.34;;;21.40;42.32
40372;BME280;28564;53.346;-6.554;2023-07-30T10:31:47;99975.19;;;21.35;42.28
40372;BME280;28564;53.346;-6.554;2023-07-30T10:34:15;99979.99;;;21.25;41.97
40372;BME280;28564;53.346;-6.554;2023-07-30T10:36:43;99982.17;;;21.33;42.26
40372;BME280;28564;53.346;-6.554;2023-07-30T10:39:12;99975.60;;;21.01;42.56
40372;BME280;28564;53.346;-6.554;2023-07-30T10:41:40;99972.11;;;21.23;43.01
40372;BME280;28564;53.346;-6.554;2023-07-30T10:44:07;99970.09;;;21.34;43.21
40372;BME280;28564;53.346;-6.554;2023-07-30T10:46:44;99973.34;;;21.08;43.32
40372;BME280;28564;53.346;-6.554;2023-07-30T10:49:11;99974.53;;;21.35;43.76
40372;BME280;28564;53.346;-6.554;2023-07-30T10:51:43;99969.40;;;21.22;43.55
40372;BME280;28564;53.346;-6.554;2023-07-30T10:54:10;99971.03;;;21.08;43.96
40372;BME280;28564;53.346;-6.554;2023-07-30T10:56:37;99971.42;;;21.26;43.91
40372;BME280;28564;53.346;-6.554;2023-07-30T10:59:05;99970.40;;;20.80;44.14
40372;BME280;28564;53.346;-6.554;2023-07-30T11:01:36;99970.05;;;21.32;44.03
40372;BME280;28564;53.346;-6.554;2023-07-30T11:04:06;99974.66;;;21.24;44.04
40372;BME280;28564;53.346;-6.554;2023-07-30T11:06:34;99973.11;;;21.52;43.51
40372;BME280;28564;53.346;-6.554;2023-07-30T11:09:01;99972.44;;;21.51;43.01
40372;BME280;28564;53.346;-6.554;2023-07-30T11:11:28;99969.66;;;21.51;43.53
40372;BME280;28564;53.346;-6.554;2023-07-30T11:13:57;99968.74;;;21.36;43.18
40372;BME280;28564;53.346;-6.554;2023-07-30T11:16:25;99967.83;;;21.36;42.96
40372;BME280;28564;53.346;-6.554;2023-07-30T11:18:52;99967.87;;;21.23;43.22
40372;BME280;28564;53.346;-6.554;2023-07-30T11:21:20;99969.68;;;21.31;42.88
40372;BME280;28564;53.346;-6.554;2023-07-30T11:23:50;99963.56;;;21.38;42.83
40372;BME280;28564;53.346;-6.554;2023-07-30T11:26:19;99964.76;;;21.46;43.12
40372;BME280;28564;53.346;-6.554;2023-07-30T11:28:46;99961.70;;;21.25;43.26
40372;BME280;28564;53.346;-6.554;2023-07-30T11:31:16;99964.12;;;21.31;43.69
40372;BME280;28564;53.346;-6.554;2023-07-30T11:33:45;99963.05;;;21.11;44.00
40372;BME280;28564;53.346;-6.554;2023-07-30T11:36:15;99964.32;;;21.27;44.18
40372;BME280;28564;53.346;-6.554;2023-07-30T11:38:43;99963.50;;;21.04;44.14
40372;BME280;28564;53.346;-6.554;2023-07-30T11:41:12;99964.46;;;21.34;44.25
40372;BME280;28564;53.346;-6.554;2023-07-30T11:43:42;99959.71;;;21.18;44.06
40372;BME280;28564;53.346;-6.554;2023-07-30T11:46:11;99960.76;;;21.29;44.03
40372;BME280;28564;53.346;-6.554;2023-07-30T11:48:39;99958.30;;;21.35;43.92
40372;BME280;28564;53.346;-6.554;2023-07-30T11:51:06;99955.99;;;21.65;43.61
40372;BME280;28564;53.346;-6.554;2023-07-30T11:53:51;99954.31;;;21.24;43.38
40372;BME280;28564;53.346;-6.554;2023-07-30T11:56:21;99950.08;;;21.36;43.21
40372;BME280;28564;53.346;-6.554;2023-07-30T11:58:50;99950.02;;;21.56;43.02
40372;BME280;28564;53.346;-6.554;2023-07-30T12:01:18;99947.57;;;22.00;43.02
40372;BME280;28564;53.346;-6.554;2023-07-30T12:03:46;99946.88;;;21.73;42.45
40372;BME280;28564;53.346;-6.554;2023-07-30T12:06:13;99953.09;;;21.76;42.49
40372;BME280;28564;53.346;-6.554;2023-07-30T12:08:40;99948.62;;;21.75;42.72
40372;BME280;28564;53.346;-6.554;2023-07-30T12:11:08;99950.75;;;21.72;42.75
40372;BME280;28564;53.346;-6.554;2023-07-30T12:13:43;99945.95;;;21.80;42.81
40372;BME280;28564;53.346;-6.554;2023-07-30T12:16:10;99945.35;;;21.81;42.60
40372;BME280;28564;53.346;-6.554;2023-07-30T12:18:38;99940.85;;;21.87;41.73
40372;BME280;28564;53.346;-6.554;2023-07-30T12:21:06;99940.01;;;21.86;42.12
40372;BME280;28564;53.346;-6.554;2023-07-30T12:23:34;99941.77;;;22.23;42.39
40372;BME280;28564;53.346;-6.554;2023-07-30T12:26:02;99944.22;;;22.29;42.28
40372;BME280;28564;53.346;-6.554;2023-07-30T12:28:29;99941.32;;;22.21;41.95
40372;BME280;28564;53.346;-6.554;2023-07-30T12:30:57;99940.39;;;21.62;42.48
40372;BME280;28564;53.346;-6.554;2023-07-30T12:33:24;99941.60;;;22.02;42.81
40372;BME280;28564;53.346;-6.554;2023-07-30T12:35:51;99942.11;;;21.96;43.20
40372;BME280;28564;53.346;-6.554;2023-07-30T12:38:18;99939.11;;;21.83;43.36
40372;BME280;28564;53.346;-6.554;2023-07-30T12:40:45;99940.23;;;21.74;43.64
40372;BME280;28564;53.346;-6.554;2023-07-30T12:43:12;99939.43;;;21.72;43.83
40372;BME280;28564;53.346;-6.554;2023-07-30T12:45:39;99940.07;;;21.68;43.87
40372;BME280;28564;53.346;-6.554;2023-07-30T12:48:06;99938.44;;;21.71;44.07
40372;BME280;28564;53.346;-6.554;2023-07-30T12:50:33;99934.17;;;21.85;44.30
40372;BME280;28564;53.346;-6.554;2023-07-30T12:53:00;99931.39;;;22.03;44.15